createdAt,value
2018-07-25T00:02:00.531Z,97993.27
2018-07-25T00:04:29.280Z,97990.27
2018-07-25T00:06:57.836Z,97994.27
2018-07-25T00:09:26.266Z,97992.25
2018-07-25T00:11:54.756Z,97993.27
2018-07-25T00:14:23.256Z,97993.75
2018-07-25T00:16:51.695Z,97992.92
2018-07-25T00:19:20.129Z,97989.59
2018-07-25T00:21:48.589Z,97990.59
2018-07-25T00:24:17.076Z,97986.74
2018-07-25T00:26:45.611Z,97986.27
2018-07-25T00:29:14.081Z,97996.79
2018-07-25T00:31:42.559Z,97990.11
2018-07-25T00:34:10.984Z,97987.58
2018-07-25T00:36:39.429Z,97982.43
2018-07-25T00:39:09.043Z,97984.23
2018-07-25T00:41:37.559Z,97987.25
2018-07-25T00:44:06.005Z,97990.23
2018-07-25T00:46:34.491Z,97985.89
2018-07-25T00:49:03.028Z,97989.21
2018-07-25T00:51:31.883Z,97990.23
2018-07-25T00:54:00.334Z,97986.58
2018-07-25T00:56:28.808Z,97988.54
2018-07-25T00:58:57.255Z,97989.58
2018-07-25T01:01:25.678Z,97999.91
2018-07-25T01:03:54.157Z,98003.56
2018-07-25T01:06:22.619Z,98003.20
2018-07-25T01:08:51.128Z,98001.71
2018-07-25T01:11:19.614Z,98004.55
2018-07-25T01:13:48.056Z,98000.86
2018-07-25T01:16:16.687Z,98004.00
2018-07-25T01:18:45.111Z,98007.84
2018-07-25T01:21:13.879Z,98010.36
2018-07-25T01:23:42.309Z,98005.17
2018-07-25T01:26:10.763Z,98012.10
2018-07-25T01:28:40.103Z,98005.09
2018-07-25T01:31:08.983Z,98008.91
2018-07-25T01:33:37.464Z,98005.91
2018-07-25T01:36:05.929Z,98011.63
2018-07-25T01:38:35.413Z,98015.42
2018-07-25T01:41:03.895Z,98013.72
2018-07-25T01:43:32.391Z,98015.38
2018-07-25T01:46:00.957Z,98008.03
2018-07-25T01:48:29.450Z,98009.36
2018-07-25T01:50:58.374Z,98014.80
2018-07-25T01:53:26.786Z,98016.27
2018-07-25T01:55:55.291Z,98016.52
2018-07-25T01:58:23.731Z,98020.77
2018-07-25T02:00:52.235Z,98028.83
2018-07-25T02:03:20.713Z,98024.88
2018-07-25T02:05:49.123Z,98027.92
2018-07-25T02:08:17.614Z,98024.80
2018-07-25T02:10:46.665Z,98025.75
2018-07-25T02:13:17.062Z,98026.25
2018-07-25T02:15:46.160Z,98032.02
2018-07-25T02:18:14.832Z,98031.14
2018-07-25T02:20:43.272Z,98022.61
2018-07-25T02:23:11.736Z,98028.63
2018-07-25T02:25:40.135Z,98022.46
2018-07-25T02:28:08.758Z,98024.11
2018-07-25T02:30:37.212Z,98031.95
2018-07-25T02:33:05.679Z,98029.71
2018-07-25T02:35:34.116Z,98037.20
2018-07-25T02:38:02.600Z,98031.74
2018-07-25T02:40:31.072Z,98031.70
2018-07-25T02:42:59.551Z,98038.59
2018-07-25T02:45:32.172Z,98041.51
2018-07-25T02:48:00.634Z,98045.81
2018-07-25T02:50:29.128Z,98044.39
2018-07-25T02:52:57.593Z,98037.70
2018-07-25T02:55:26.077Z,98039.68
2018-07-25T02:57:54.532Z,98038.45
2018-07-25T03:00:23.013Z,98047.94
2018-07-25T03:02:51.528Z,98045.48
2018-07-25T03:05:20.212Z,98042.63
2018-07-25T03:07:48.679Z,98043.98
2018-07-25T03:10:17.164Z,98047.53
2018-07-25T03:12:46.652Z,98039.07
2018-07-25T03:15:15.111Z,98038.16
2018-07-25T03:17:43.573Z,98047.70
2018-07-25T03:20:12.025Z,98052.59
2018-07-25T03:22:40.661Z,98052.25
2018-07-25T03:25:09.111Z,98051.22
2018-07-25T03:27:37.535Z,98047.36
2018-07-25T03:30:06.747Z,98057.66
2018-07-25T03:32:35.129Z,98058.95
2018-07-25T03:35:03.850Z,98054.80
2018-07-25T03:37:32.373Z,98055.67
2018-07-25T03:40:00.778Z,98050.09
2018-07-25T03:42:29.310Z,98053.75
2018-07-25T03:44:57.723Z,98058.74
2018-07-25T03:47:26.221Z,98057.81
2018-07-25T03:49:54.643Z,98059.19
2018-07-25T03:52:23.090Z,98063.78
2018-07-25T03:54:52.472Z,98064.94
2018-07-25T03:57:20.933Z,98063.73
2018-07-25T03:59:49.507Z,98068.09
2018-07-25T04:02:17.936Z,98074.29
2018-07-25T04:04:46.397Z,98074.00
2018-07-25T04:07:14.900Z,98073.16
2018-07-25T04:09:43.568Z,98076.23
2018-07-25T04:12:12.051Z,98082.40
2018-07-25T04:14:40.480Z,98079.81
2018-07-25T04:17:09.138Z,98077.98
2018-07-25T04:19:37.739Z,98079.27
2018-07-25T04:22:06.271Z,98080.16
2018-07-25T04:24:34.758Z,98084.47
2018-07-25T04:27:03.224Z,98082.13
2018-07-25T04:29:31.678Z,98089.86
2018-07-25T04:32:00.303Z,98086.56
2018-07-25T04:34:28.782Z,98089.02
2018-07-25T04:36:57.556Z,98086.56
2018-07-25T04:39:26.068Z,98089.22
2018-07-25T04:41:54.499Z,98090.72
2018-07-25T04:44:22.938Z,98094.06
2018-07-25T04:46:51.446Z,98096.05
2018-07-25T04:49:19.903Z,98104.27
2018-07-25T04:51:48.481Z,98108.61
2018-07-25T04:54:16.978Z,98099.94
2018-07-25T04:56:45.684Z,98096.61
2018-07-25T04:59:14.540Z,98102.44
2018-07-25T05:01:42.976Z,98108.11
2018-07-25T05:04:11.507Z,98112.63
2018-07-25T05:06:39.930Z,98112.09
2018-07-25T05:09:10.532Z,98111.09
2018-07-25T05:11:39.343Z,98110.42
2018-07-25T05:14:08.408Z,98108.75
2018-07-25T05:16:37.277Z,98109.08
2018-07-25T05:19:06.068Z,98113.23
2018-07-25T05:21:34.554Z,98111.59
2018-07-25T05:24:03.902Z,98113.94
2018-07-25T05:26:32.367Z,98117.61
2018-07-25T05:29:00.810Z,98117.43
2018-07-25T05:31:29.294Z,98112.59
2018-07-25T05:33:57.962Z,98114.39
2018-07-25T05:36:26.929Z,98115.23
2018-07-25T05:38:55.390Z,98118.55
2018-07-25T05:41:23.848Z,98125.23
2018-07-25T05:43:52.306Z,98121.91
2018-07-25T05:46:21.236Z,98128.25
2018-07-25T05:48:49.939Z,98127.66
2018-07-25T05:51:18.418Z,98129.61
2018-07-25T05:53:47.065Z,98129.61
2018-07-25T05:56:15.505Z,98133.92
2018-07-25T05:58:44.031Z,98134.95
2018-07-25T06:01:14.812Z,98133.20
2018-07-25T06:03:43.351Z,98138.56
2018-07-25T06:06:11.846Z,98137.15
2018-07-25T06:08:40.342Z,98143.42
2018-07-25T06:11:08.982Z,98142.66
2018-07-25T06:13:38.040Z,98146.82
2018-07-25T06:16:06.935Z,98137.11
2018-07-25T06:18:35.807Z,98141.55
2018-07-25T06:21:04.202Z,98137.73
2018-07-25T06:23:32.683Z,98138.64
2018-07-25T06:26:01.326Z,98130.27
2018-07-25T06:28:29.740Z,98136.23
2018-07-25T06:30:58.333Z,98142.48
2018-07-25T06:33:27.559Z,98142.08
2018-07-25T06:35:56.225Z,98134.63
2018-07-25T06:38:25.058Z,98138.44
2018-07-25T06:40:53.568Z,98139.01
2018-07-25T06:43:22.030Z,98143.69
2018-07-25T06:45:50.391Z,98151.84
2018-07-25T06:48:19.060Z,98147.94
2018-07-25T06:50:47.562Z,98148.55
2018-07-25T06:53:16.017Z,98146.33
2018-07-25T06:55:44.599Z,98149.89
2018-07-25T06:58:13.243Z,98153.43
2018-07-25T07:00:42.203Z,98148.05
2018-07-25T07:03:10.675Z,98150.17
2018-07-25T07:05:39.105Z,98153.30
2018-07-25T07:08:07.569Z,98150.02
2018-07-25T07:10:36.064Z,98155.20
2018-07-25T07:13:04.659Z,98149.76
2018-07-25T07:15:33.168Z,98149.20
2018-07-25T07:18:01.627Z,98152.82
2018-07-25T07:20:30.240Z,98161.96
2018-07-25T07:22:58.721Z,98155.19
2018-07-25T07:25:27.129Z,98155.25
2018-07-25T07:27:55.559Z,98158.98
2018-07-25T07:30:24.945Z,98153.59
2018-07-25T07:32:53.681Z,98149.78
2018-07-25T07:35:22.140Z,98154.82
2018-07-25T07:37:50.658Z,98156.86
2018-07-25T07:40:19.359Z,98152.14
2018-07-25T07:42:47.828Z,98156.00
2018-07-25T07:45:16.465Z,98155.41
2018-07-25T07:47:44.995Z,98156.77
2018-07-25T07:50:13.419Z,98157.47
2018-07-25T07:52:41.910Z,98157.13
2018-07-25T07:55:10.360Z,98160.54
2018-07-25T07:57:38.804Z,98160.81
2018-07-25T08:00:08.172Z,98162.71
2018-07-25T08:02:37.275Z,98162.55
2018-07-25T08:05:05.947Z,98154.02
2018-07-25T08:07:34.355Z,98156.60
2018-07-25T08:10:03.191Z,98154.06
2018-07-25T08:12:32.003Z,98154.85
2018-07-25T08:15:31.139Z,98157.88
2018-07-25T08:18:00.417Z,98154.42
2018-07-25T08:20:29.315Z,98158.67
2018-07-25T08:22:57.764Z,98162.30
2018-07-25T08:25:26.167Z,98158.61
2018-07-25T08:27:54.595Z,98154.08
2018-07-25T08:30:23.075Z,98155.87
2018-07-25T08:32:51.532Z,98154.05
2018-07-25T08:35:20.188Z,98150.38
2018-07-25T08:37:48.779Z,98151.81
2018-07-25T08:40:17.282Z,98152.86
2018-07-25T08:42:45.732Z,98152.64
2018-07-25T08:45:14.207Z,98156.17
2018-07-25T08:47:42.679Z,98157.08
2018-07-25T08:50:11.114Z,98158.23
2018-07-25T08:52:39.961Z,98156.30
2018-07-25T08:55:08.714Z,98160.52
2018-07-25T08:57:37.110Z,98154.69
2018-07-25T09:00:06.289Z,98149.98
2018-07-25T09:02:34.726Z,98158.97
2018-07-25T09:05:03.249Z,98139.03
2018-07-25T09:07:31.850Z,98152.86
2018-07-25T09:10:00.259Z,98154.34
2018-07-25T09:12:28.919Z,98153.11
2018-07-25T09:14:57.330Z,98147.21
2018-07-25T09:17:25.911Z,98141.33
2018-07-25T09:19:54.333Z,98142.62
2018-07-25T09:22:22.799Z,98145.36
2018-07-25T09:24:51.446Z,98139.86
2018-07-25T09:27:19.867Z,98135.88
2018-07-25T09:29:48.347Z,98136.92
2018-07-25T09:32:16.792Z,98129.48
2018-07-25T09:34:45.295Z,98131.01
2018-07-25T09:37:13.924Z,98130.91
2018-07-25T09:39:42.791Z,98131.12
2018-07-25T09:42:11.255Z,98118.80
2018-07-25T09:44:40.398Z,98120.77
2018-07-25T09:47:09.017Z,98130.89
2018-07-25T09:49:37.356Z,98124.46
2018-07-25T09:52:05.823Z,98123.43
2018-07-25T09:54:35.348Z,98122.47
2018-07-25T09:57:04.357Z,98120.66
2018-07-25T09:59:32.830Z,98117.22
2018-07-25T10:02:01.299Z,98110.66
2018-07-25T10:04:29.844Z,98111.05
2018-07-25T10:06:58.543Z,98109.56
2018-07-25T10:09:26.983Z,98111.42
2018-07-25T10:11:55.447Z,98099.44
2018-07-25T10:14:23.974Z,98101.53
2018-07-25T10:16:52.606Z,98091.33
2018-07-25T10:19:21.491Z,98100.81
2018-07-25T10:21:50.008Z,98096.63
2018-07-25T10:24:18.485Z,98100.89
2018-07-25T10:26:46.954Z,98103.47
2018-07-25T10:29:15.409Z,98102.64
2018-07-25T10:31:44.218Z,98098.16
2018-07-25T10:34:13.097Z,98094.55
2018-07-25T10:36:41.586Z,98095.30
2018-07-25T10:39:10.579Z,98095.55
2018-07-25T10:41:39.159Z,98086.88
2018-07-25T10:44:07.661Z,98084.75
2018-07-25T10:46:36.152Z,98081.64
2018-07-25T10:49:05.268Z,98085.95
2018-07-25T10:51:33.767Z,98084.78
2018-07-25T10:54:02.240Z,98079.67
2018-07-25T10:56:30.710Z,98073.08
2018-07-25T10:58:59.155Z,98071.88
2018-07-25T11:01:27.726Z,98067.35
2018-07-25T11:03:56.207Z,98064.82
2018-07-25T11:06:25.126Z,98063.38
2018-07-25T11:08:53.616Z,98060.29
2018-07-25T11:11:22.066Z,98057.70
2018-07-25T11:13:50.687Z,98052.94
2018-07-25T11:16:19.145Z,98056.59
2018-07-25T11:18:47.884Z,98053.15
2018-07-25T11:21:16.291Z,98052.45
2018-07-25T11:23:44.739Z,98045.49
2018-07-25T11:26:13.195Z,98048.13
2018-07-25T11:28:41.872Z,98049.99
2018-07-25T11:31:10.323Z,98046.84
2018-07-25T11:33:38.722Z,98049.50
2018-07-25T11:36:07.271Z,98046.74
2018-07-25T11:38:35.718Z,98049.67
2018-07-25T11:41:04.198Z,98042.78
2018-07-25T11:43:32.655Z,98040.58
2018-07-25T11:46:01.091Z,98037.47
2018-07-25T11:48:29.545Z,98037.70
2018-07-25T11:50:58.227Z,98035.63
2018-07-25T11:53:27.047Z,98018.02
2018-07-25T11:55:55.530Z,98028.39
2018-07-25T11:58:24.235Z,98022.28
2018-07-25T12:00:52.660Z,98014.84
2018-07-25T12:03:21.102Z,98024.93
2018-07-25T12:05:49.547Z,98011.73
2018-07-25T12:08:17.967Z,98007.02
2018-07-25T12:10:46.375Z,98008.19
2018-07-25T12:13:14.830Z,98009.30
2018-07-25T12:15:43.277Z,98001.63
2018-07-25T12:18:11.728Z,98009.33
2018-07-25T12:20:40.131Z,98008.12
2018-07-25T12:23:08.588Z,98008.98
2018-07-25T12:25:37.066Z,97998.28
2018-07-25T12:28:05.777Z,98002.02
2018-07-25T12:30:48.820Z,98003.84
2018-07-25T12:33:17.547Z,98005.67
2018-07-25T12:35:46.005Z,97998.38
2018-07-25T12:38:14.483Z,97996.63
2018-07-25T12:40:43.038Z,97993.28
2018-07-25T12:43:11.784Z,97991.07
2018-07-25T12:45:40.444Z,97983.92
2018-07-25T12:48:09.746Z,97978.70
2018-07-25T12:50:38.436Z,97976.73
2018-07-25T12:53:07.245Z,97980.52
2018-07-25T12:55:35.679Z,97982.30
2018-07-25T12:58:04.162Z,97974.70
2018-07-25T13:00:33.167Z,97971.00
2018-07-25T13:03:01.599Z,97976.31
2018-07-25T13:05:30.036Z,97970.45
2018-07-25T13:07:59.275Z,97971.33
2018-07-25T13:10:27.727Z,97961.31
2018-07-25T13:12:56.208Z,97956.38
2018-07-25T13:15:25.017Z,97957.45
2018-07-25T13:17:53.707Z,97957.72
2018-07-25T13:20:22.399Z,97940.24
2018-07-25T13:22:51.098Z,97943.02
2018-07-25T13:25:20.172Z,97947.92
2018-07-25T13:30:32.059Z,97940.60
2018-07-25T13:33:00.827Z,97939.09
2018-07-25T13:35:29.695Z,97936.91
2018-07-25T13:37:58.161Z,97931.73
2018-07-25T13:40:26.968Z,97920.58
2018-07-25T13:42:55.660Z,97925.19
2018-07-25T13:45:24.130Z,97926.44
2018-07-25T13:47:52.739Z,97923.41
2018-07-25T13:50:21.372Z,97928.37
2018-07-25T13:52:50.305Z,97927.44
2018-07-25T13:55:18.757Z,97940.23
2018-07-25T13:57:47.208Z,97928.27
2018-07-25T14:00:15.644Z,97932.16
2018-07-25T14:02:44.088Z,97932.71
2018-07-25T14:05:12.680Z,97933.45
2018-07-25T14:07:41.109Z,97927.48
2018-07-25T14:10:09.569Z,97929.36
2018-07-25T14:12:38.079Z,97922.42
2018-07-25T14:15:07.584Z,97923.97
2018-07-25T14:17:36.083Z,97920.45
2018-07-25T14:20:04.671Z,97923.22
2018-07-25T14:22:33.095Z,97910.52
2018-07-25T14:25:01.576Z,97913.59
2018-07-25T14:27:30.191Z,97905.31
2018-07-25T14:29:58.880Z,97905.97
2018-07-25T14:32:27.754Z,97901.70
2018-07-25T14:34:56.238Z,97899.79
2018-07-25T14:37:24.724Z,97897.00
2018-07-25T14:39:53.249Z,97901.84
2018-07-25T14:42:21.737Z,97891.00
2018-07-25T14:44:50.179Z,97891.03
2018-07-25T14:47:18.889Z,97897.09
2018-07-25T14:49:47.279Z,97887.16
2018-07-25T14:52:15.861Z,97891.81
2018-07-25T14:54:45.076Z,97896.61
2018-07-25T14:57:13.664Z,97888.31
2018-07-25T14:59:42.275Z,97885.38
2018-07-25T15:02:10.736Z,97886.34
2018-07-25T15:04:39.299Z,97884.75
2018-07-25T15:07:07.787Z,97874.69
2018-07-25T15:09:36.294Z,97893.72
2018-07-25T15:12:04.966Z,97885.22
2018-07-25T15:14:33.621Z,97886.41
2018-07-25T15:17:02.169Z,97889.31
2018-07-25T15:19:30.812Z,97880.05
2018-07-25T15:21:59.311Z,97877.06
2018-07-25T15:24:27.786Z,97881.70
2018-07-25T15:26:56.610Z,97883.10
2018-07-25T15:29:25.123Z,97873.56
2018-07-25T15:31:53.498Z,97873.98
2018-07-25T15:34:22.127Z,97875.20
2018-07-25T15:36:52.152Z,97867.52
2018-07-25T15:39:25.645Z,97858.00
2018-07-25T15:41:55.947Z,97882.82
2018-07-25T15:44:25.869Z,97897.27
2018-07-25T15:46:54.353Z,97922.81
2018-07-25T15:49:23.100Z,97925.92
2018-07-25T15:51:51.630Z,97928.91
2018-07-25T15:54:20.163Z,97942.02
2018-07-25T15:56:48.642Z,97922.23
2018-07-25T15:59:17.645Z,97930.32
2018-07-25T16:01:46.300Z,97919.72
2018-07-25T16:04:14.748Z,97914.30
2018-07-25T16:06:43.299Z,97908.34
2018-07-25T16:09:12.989Z,97933.71
2018-07-25T16:11:42.163Z,97929.67
2018-07-25T16:14:10.624Z,97937.93
2018-07-25T16:16:39.044Z,97937.78
2018-07-25T16:19:07.522Z,97931.86
2018-07-25T16:21:36.018Z,97934.92
2018-07-25T16:24:04.759Z,97940.34
2018-07-25T16:26:33.187Z,97944.81
2018-07-25T16:29:02.961Z,97955.14
2018-07-25T16:31:31.452Z,97956.42
2018-07-25T16:33:59.950Z,97957.05
2018-07-25T16:36:28.440Z,97957.53
2018-07-25T16:38:56.911Z,97956.63
2018-07-25T16:41:26.274Z,97953.56
2018-07-25T16:43:54.674Z,97951.08
2018-07-25T16:46:23.633Z,97952.27
2018-07-25T16:48:52.214Z,97952.36
2018-07-25T16:51:20.675Z,97946.27
2018-07-25T16:53:49.270Z,97949.13
2018-07-25T16:56:17.706Z,97949.75
2018-07-25T16:58:46.179Z,97952.99
2018-07-25T17:01:14.630Z,97984.70
2018-07-25T17:03:43.764Z,97979.48
2018-07-25T17:06:12.215Z,97958.75
2018-07-25T17:08:40.996Z,97947.95
2018-07-25T17:11:09.470Z,97949.27
2018-07-25T17:13:38.336Z,97942.26
2018-07-25T17:16:06.897Z,97944.66
2018-07-25T17:18:35.401Z,97947.38
2018-07-25T17:21:04.116Z,97939.29
2018-07-25T17:23:32.660Z,97939.44
2018-07-25T17:26:01.583Z,97938.90
2018-07-25T17:28:30.076Z,97929.94
2018-07-25T17:30:58.702Z,97933.06
2018-07-25T17:33:27.201Z,97928.16
2018-07-25T17:35:55.658Z,97929.44
2018-07-25T17:38:24.227Z,97923.38
2018-07-25T17:40:52.699Z,97921.55
2018-07-25T17:43:21.171Z,97919.95
2018-07-25T17:45:49.655Z,97918.97
2018-07-25T17:48:32.560Z,97928.25
2018-07-25T17:51:01.032Z,97923.45
2018-07-25T17:53:29.499Z,97926.61
2018-07-25T17:55:58.622Z,97929.93
2018-07-25T17:58:27.180Z,97932.27
2018-07-25T18:00:55.886Z,97931.09
2018-07-25T18:03:24.647Z,97928.14
2018-07-25T18:05:53.257Z,97927.47
2018-07-25T18:08:21.883Z,97921.88
2018-07-25T18:10:52.045Z,97933.67
2018-07-25T18:13:25.607Z,97934.82
2018-07-25T18:15:54.165Z,97938.36
2018-07-25T18:18:22.865Z,97949.21
2018-07-25T18:20:51.381Z,97950.02
2018-07-25T18:23:19.886Z,97950.03
2018-07-25T18:25:48.407Z,97957.89
2018-07-25T18:28:17.990Z,97967.77
2018-07-25T18:30:46.437Z,97966.36
2018-07-25T18:33:14.951Z,97969.19
2018-07-25T18:35:43.439Z,97969.89
2018-07-25T18:38:12.003Z,97977.61
2018-07-25T18:40:41.229Z,97980.67
2018-07-25T18:43:09.691Z,97981.78
2018-07-25T18:45:38.467Z,97985.23
2018-07-25T18:48:07.021Z,97988.19
2018-07-25T18:50:35.510Z,98008.09
2018-07-25T18:53:04.110Z,98037.52
2018-07-25T18:55:32.578Z,98059.87
2018-07-25T18:58:01.037Z,98044.49
2018-07-25T19:00:29.739Z,98038.02
2018-07-25T19:02:58.219Z,98043.26
2018-07-25T19:05:30.932Z,98040.13
2018-07-25T19:08:00.599Z,98046.01
2018-07-25T19:10:29.209Z,98056.89
2018-07-25T19:12:57.670Z,98067.70
2018-07-25T19:15:33.396Z,98085.98
2018-07-25T19:18:02.385Z,98075.17
2018-07-25T19:20:30.823Z,98078.80
2018-07-25T19:22:59.269Z,98076.08
2018-07-25T19:25:27.720Z,98061.81
2018-07-25T19:27:56.122Z,98068.78
2018-07-25T19:30:24.588Z,98090.23
2018-07-25T19:32:53.046Z,98104.45
2018-07-25T19:35:21.708Z,98102.38
2018-07-25T19:40:17.556Z,98117.69
2018-07-25T19:42:45.991Z,98116.82
2018-07-25T19:45:14.442Z,98107.15
2018-07-25T19:47:42.927Z,98102.03
2018-07-25T19:50:11.429Z,98114.51
2018-07-25T19:52:40.522Z,98113.80
2018-07-25T19:55:09.000Z,98113.70
2018-07-25T19:57:37.464Z,98105.55
2018-07-25T20:00:06.347Z,98112.69
2018-07-25T20:02:34.779Z,98128.19
2018-07-25T20:05:03.398Z,98123.72
2018-07-25T20:07:32.025Z,98121.55
2018-07-25T20:10:00.503Z,98120.20
2018-07-25T20:12:28.972Z,98114.98
2018-07-25T20:15:03.110Z,98116.48
2018-07-25T20:17:31.620Z,98123.03
2018-07-25T20:20:00.077Z,98116.20
2018-07-25T20:22:28.608Z,98135.18
2018-07-25T20:24:57.059Z,98140.67
2018-07-25T20:27:25.514Z,98145.15
2018-07-25T20:29:53.975Z,98154.12
2018-07-25T20:32:22.448Z,98160.95
2018-07-25T20:34:50.977Z,98165.17
2018-07-25T20:37:19.555Z,98188.86
2018-07-25T20:39:47.975Z,98176.66
2018-07-25T20:42:16.608Z,98163.49
2018-07-25T20:44:44.997Z,98155.27
2018-07-25T20:47:13.704Z,98146.58
2018-07-25T20:49:42.131Z,98138.23
2018-07-25T20:52:10.545Z,98141.73
2018-07-25T20:54:39.095Z,98134.69
2018-07-25T20:57:08.131Z,98131.70
2018-07-25T20:59:36.604Z,98126.55
2018-07-25T21:02:05.043Z,98125.08
2018-07-25T21:04:33.476Z,98121.27
2018-07-25T21:07:01.993Z,98124.23
2018-07-25T21:09:30.519Z,98130.09
2018-07-25T21:11:58.993Z,98133.80
2018-07-25T21:14:27.427Z,98138.63
2018-07-25T21:16:56.031Z,98147.45
2018-07-25T21:19:24.499Z,98150.97
2018-07-25T21:21:52.959Z,98157.47
2018-07-25T21:24:21.418Z,98154.29
2018-07-25T21:26:50.175Z,98166.16
2018-07-25T21:29:18.657Z,98163.17
2018-07-25T21:31:47.098Z,98162.98
2018-07-25T21:34:15.590Z,98164.16
2018-07-25T21:36:44.055Z,98168.66
2018-07-25T21:39:13.654Z,98176.33
2018-07-25T21:41:42.529Z,98180.66
2018-07-25T21:44:11.260Z,98183.67
2018-07-25T21:46:39.745Z,98177.99
2018-07-25T21:49:08.524Z,98188.61
2018-07-25T21:51:36.955Z,98194.65
2018-07-25T21:54:05.876Z,98192.28
2018-07-25T21:56:34.317Z,98198.64
2018-07-25T21:59:02.933Z,98196.64
2018-07-25T22:01:31.397Z,98202.48
2018-07-25T22:03:59.831Z,98205.64
2018-07-25T22:06:28.407Z,98197.66
2018-07-25T22:08:56.844Z,98207.48
2018-07-25T22:11:25.331Z,98208.97
2018-07-25T22:13:56.830Z,98211.64
2018-07-25T22:16:26.591Z,98210.96
2018-07-25T22:18:55.492Z,98213.34
2018-07-25T22:21:23.967Z,98210.86
2018-07-25T22:23:52.495Z,98215.67
2018-07-25T22:26:20.990Z,98198.66
2018-07-25T22:28:49.651Z,98202.03
2018-07-25T22:31:18.165Z,98201.19
2018-07-25T22:33:46.662Z,98203.00
2018-07-25T22:36:15.133Z,98194.68
2018-07-25T22:38:43.560Z,98198.70
2018-07-25T22:41:12.008Z,98202.36
2018-07-25T22:43:40.444Z,98204.02
2018-07-25T22:46:08.900Z,98204.19
2018-07-25T22:48:37.396Z,98197.68
2018-07-25T22:51:06.317Z,98200.02
2018-07-25T22:53:34.785Z,98192.17
2018-07-25T22:56:03.456Z,98197.86
2018-07-25T22:58:32.066Z,98204.02
2018-07-25T23:01:00.550Z,98195.69
2018-07-25T23:03:29.024Z,98193.02
2018-07-25T23:05:57.676Z,98192.02
2018-07-25T23:08:26.148Z,98201.33
2018-07-25T23:10:54.773Z,98199.99
2018-07-25T23:13:23.323Z,98185.99
2018-07-25T23:15:52.319Z,98193.31
2018-07-25T23:18:20.731Z,98197.70
2018-07-25T23:20:49.204Z,98198.70
2018-07-25T23:23:17.629Z,98207.69
2018-07-25T23:25:46.083Z,98200.94
2018-07-25T23:28:14.770Z,98186.94
2018-07-25T23:30:43.204Z,98183.61
2018-07-25T23:33:11.671Z,98181.55
2018-07-25T23:35:40.187Z,98188.73
2018-07-25T23:38:08.763Z,98187.07
2018-07-25T23:40:37.205Z,98185.34
2018-07-25T23:43:05.627Z,98185.03
2018-07-25T23:45:34.099Z,98175.22
2018-07-25T23:48:02.511Z,98175.91
2018-07-25T23:50:30.992Z,98165.57
2018-07-25T23:52:59.516Z,98163.70
2018-07-25T23:55:27.954Z,98169.05
2018-07-25T23:57:56.604Z,98173.20
